Terminal Aerodrome Forecast
Issued by NWS

Home | Current Version | Previous Version | Graphics & Text | Print | Product List | Glossary On
Versions: 1 2 3 4 5 6 7 8 9 10 11 12 13 14 15 16 17 18
000
FTUS43 KICT 231138
TAFSLN
TAF
KSLN 231138Z 2312/2412 07014KT P6SM VCSH BKN100
     FM231700 09014KT P6SM BKN100
     FM232300 05010KT P6SM VCTS BKN050CB
     FM240200 33018G25KT P6SM VCSH BKN015=

USA.gov is the U.S. government's official web portal to all federal, state and local government web resources and services.